Time;durP1;ratioP1;P1;durP2;ratioP2;P2;SDS_P1;SDS_P2;PMS_P1;PMS_P2;Temp;Humidity;BMP_temperature;BMP_pressure;BME280_temperature;BME280_humidity;BME280_pressure;Samples;Min_cycle;Max_cycle;Signal;HPM_P1;HPM_P2
2023/03/30 00:01:02;;;;;;;7.93;2.20;;;13.20;22.20;;;;;;5055603;28;21036;-70
2023/03/30 00:03:29;;;;;;;11.70;2.90;;;13.20;22.50;;;;;;5054865;28;20865;-70
2023/03/30 00:05:56;;;;;;;9.83;2.70;;;13.20;22.50;;;;;;5054120;28;20454;-70
2023/03/30 00:08:26;;;;;;;15.40;3.30;;;13.20;22.60;;;;;;5059737;28;20516;-70
2023/03/30 00:11:00;;;;;;;10.73;2.47;;;13.20;22.60;;;;;;5052429;28;20478;-70
2023/03/30 00:13:28;;;;;;;8.00;2.00;;;13.20;22.80;;;;;;5054466;28;20446;-70
2023/03/30 00:15:54;;;;;;;9.73;2.27;;;13.20;22.90;;;;;;5060241;28;20465;-70
2023/03/30 00:18:21;;;;;;;7.17;2.30;;;13.20;23.10;;;;;;5057069;28;20484;-71
2023/03/30 00:20:49;;;;;;;9.70;3.60;;;13.20;23.20;;;;;;5057497;28;20461;-70
2023/03/30 00:23:16;;;;;;;12.97;2.73;;;13.20;23.40;;;;;;5062533;28;21014;-70
2023/03/30 00:25:43;;;;;;;11.13;2.83;;;13.10;23.50;;;;;;5058178;28;20833;-70
2023/03/30 00:28:11;;;;;;;16.67;3.57;;;13.20;23.40;;;;;;5053591;28;20505;-70
2023/03/30 00:30:38;;;;;;;7.93;2.80;;;13.10;23.70;;;;;;5053270;28;20689;-70
2023/03/30 00:33:05;;;;;;;11.13;2.47;;;13.20;23.70;;;;;;5058187;28;20508;-70
2023/03/30 00:35:32;;;;;;;9.07;2.00;;;13.20;24.00;;;;;;5053048;28;20562;-70
2023/03/30 00:38:02;;;;;;;9.47;2.47;;;13.10;24.60;;;;;;5057702;28;20488;-70
2023/03/30 00:40:31;;;;;;;8.40;1.97;;;13.10;23.90;;;;;;5058101;28;20460;-70
2023/03/30 00:42:59;;;;;;;10.53;2.67;;;13.20;24.00;;;;;;5059472;28;20484;-70
2023/03/30 00:45:29;;;;;;;10.70;3.17;;;13.20;24.10;;;;;;5059362;28;20460;-70
2023/03/30 00:48:00;;;;;;;9.87;2.70;;;13.20;24.00;;;;;;5061050;28;20488;-69
2023/03/30 00:50:33;;;;;;;10.90;2.87;;;13.20;24.30;;;;;;5059920;28;20457;-70
2023/03/30 00:53:02;;;;;;;9.00;2.10;;;13.20;24.30;;;;;;5059709;28;20481;-70
2023/03/30 00:55:31;;;;;;;9.93;2.80;;;13.20;24.40;;;;;;5057512;28;20465;-70
2023/03/30 00:57:59;;;;;;;15.03;3.07;;;13.10;24.50;;;;;;5056952;28;20495;-70
2023/03/30 01:00:27;;;;;;;13.07;2.47;;;13.20;24.60;;;;;;5064279;28;20965;-71
2023/03/30 01:02:58;;;;;;;10.73;2.77;;;13.20;24.70;;;;;;5063675;28;20473;-70
2023/03/30 01:05:27;;;;;;;10.70;2.50;;;13.20;25.40;;;;;;5060466;28;20468;-70
2023/03/30 01:07:56;;;;;;;8.53;2.53;;;13.20;26.00;;;;;;5057399;28;20505;-70
2023/03/30 01:10:24;;;;;;;10.33;2.27;;;13.20;26.50;;;;;;5055694;28;20458;-70
2023/03/30 01:12:51;;;;;;;8.40;2.30;;;13.20;26.50;;;;;;5059093;28;20489;-70
2023/03/30 01:15:18;;;;;;;12.87;3.30;;;13.20;26.50;;;;;;5063185;28;20464;-71
2023/03/30 01:18:05;;;;;;;14.83;3.10;;;13.20;26.50;;;;;;5057761;28;20489;-71
2023/03/30 01:21:12;;;;;;;6.83;2.17;;;13.20;26.80;;;;;;5059332;28;20458;-70
2023/03/30 01:24:17;;;;;;;7.40;2.23;;;13.20;27.40;;;;;;5059474;28;20461;-70
2023/03/30 01:26:54;;;;;;;12.47;2.40;;;13.20;27.40;;;;;;5061291;28;20482;-70
2023/03/30 01:29:44;;;;;;;11.60;2.80;;;13.20;26.60;;;;;;5054963;28;20834;-70
2023/03/30 01:32:41;;;;;;;10.80;2.50;;;13.30;27.10;;;;;;5060967;28;20485;-70
2023/03/30 01:35:53;;;;;;;15.67;3.07;;;13.30;27.30;;;;;;5058540;28;20462;-70
2023/03/30 01:38:38;;;;;;;14.07;3.10;;;13.30;27.30;;;;;;5017247;28;21024;-70
2023/03/30 01:41:12;;;;;;;11.53;2.20;;;13.30;27.70;;;;;;5056567;28;20700;-71
2023/03/30 01:43:48;;;;;;;11.67;2.80;;;13.20;27.90;;;;;;5060574;28;20453;-70
2023/03/30 01:46:24;;;;;;;10.03;2.80;;;13.20;28.10;;;;;;5059061;28;20456;-71
2023/03/30 01:49:00;;;;;;;12.07;2.97;;;13.20;28.40;;;;;;5055919;28;20471;-71
2023/03/30 01:51:32;;;;;;;9.87;2.67;;;13.20;29.10;;;;;;5053814;28;20472;-70
2023/03/30 01:54:05;;;;;;;11.33;2.43;;;13.10;28.50;;;;;;5056769;28;20468;-70
2023/03/30 01:56:38;;;;;;;10.43;2.57;;;13.10;28.60;;;;;;5056936;28;20478;-70
2023/03/30 01:59:09;;;;;;;14.43;3.30;;;13.10;28.80;;;;;;5060671;28;20462;-70
2023/03/30 02:01:38;;;;;;;11.00;2.73;;;13.10;28.80;;;;;;5058716;28;20843;-70
2023/03/30 02:04:06;;;;;;;9.50;2.43;;;13.00;29.00;;;;;;5057250;28;20461;-70
2023/03/30 02:06:38;;;;;;;14.30;3.63;;;13.00;29.10;;;;;;5058755;28;20480;-70
2023/03/30 02:09:09;;;;;;;12.27;3.47;;;13.00;29.10;;;;;;5056736;28;21272;-70
2023/03/30 02:11:39;;;;;;;10.30;3.27;;;13.00;29.50;;;;;;5059600;28;20472;-70
2023/03/30 02:14:08;;;;;;;14.97;3.17;;;13.10;29.90;;;;;;5057420;28;20470;-70
2023/03/30 02:16:41;;;;;;;15.07;3.57;;;13.10;30.20;;;;;;5058374;28;20481;-70
2023/03/30 02:19:08;;;;;;;11.47;2.73;;;13.00;30.20;;;;;;5055808;28;20548;-70
2023/03/30 02:21:35;;;;;;;12.93;4.47;;;13.00;31.30;;;;;;5057255;28;20453;-70
2023/03/30 02:24:06;;;;;;;9.27;3.03;;;13.00;32.00;;;;;;5055374;28;20458;-70
2023/03/30 02:26:34;;;;;;;6.40;2.30;;;12.90;32.40;;;;;;5058045;28;20474;-70
2023/03/30 02:29:02;;;;;;;10.90;3.03;;;12.90;32.80;;;;;;5059326;28;20461;-70
2023/03/30 02:31:31;;;;;;;8.17;3.77;;;12.80;33.30;;;;;;5058920;28;21047;-70
2023/03/30 02:34:08;;;;;;;10.60;3.13;;;12.80;33.70;;;;;;5059810;28;20488;-70
2023/03/30 02:36:49;;;;;;;10.10;3.03;;;12.80;33.50;;;;;;5056522;28;20894;-70
2023/03/30 02:39:29;;;;;;;11.83;2.70;;;12.80;33.80;;;;;;5055128;28;20492;-70
2023/03/30 02:42:34;;;;;;;18.73;4.60;;;12.70;34.30;;;;;;5058446;28;20454;-70
2023/03/30 02:45:14;;;;;;;9.10;3.03;;;12.70;34.60;;;;;;5023878;28;20461;-70
2023/03/30 02:47:51;;;;;;;9.73;2.90;;;12.70;35.00;;;;;;5056487;28;20495;-70
2023/03/30 02:50:24;;;;;;;11.50;2.27;;;12.70;35.40;;;;;;5057106;28;20469;-70
2023/03/30 02:52:56;;;;;;;9.53;2.57;;;12.70;35.10;;;;;;5059415;28;20488;-70
2023/03/30 02:55:28;;;;;;;9.03;3.33;;;12.70;35.90;;;;;;5056337;28;20924;-70
2023/03/30 02:58:04;;;;;;;7.30;2.30;;;12.60;36.40;;;;;;5053734;28;20496;-70
2023/03/30 03:00:41;;;;;;;9.80;2.83;;;12.60;36.80;;;;;;5051824;28;20473;-70
2023/03/30 03:03:14;;;;;;;14.87;3.20;;;12.60;37.00;;;;;;5058644;28;20449;-70
2023/03/30 03:05:41;;;;;;;7.27;2.20;;;12.60;37.60;;;;;;5058100;28;20481;-70
2023/03/30 03:08:08;;;;;;;10.07;2.97;;;12.50;37.90;;;;;;5058431;28;20504;-70
2023/03/30 03:10:35;;;;;;;9.67;2.70;;;12.50;38.20;;;;;;5057122;28;20456;-70
2023/03/30 03:13:02;;;;;;;14.20;3.70;;;12.50;38.60;;;;;;5057190;28;20508;-70
2023/03/30 03:15:29;;;;;;;11.13;2.53;;;12.50;38.80;;;;;;5061524;28;20473;-70
2023/03/30 03:17:57;;;;;;;10.63;2.63;;;12.50;38.70;;;;;;5057482;28;20474;-70
2023/03/30 03:20:29;;;;;;;15.03;2.90;;;12.50;39.10;;;;;;5058737;28;20468;-70
2023/03/30 03:22:56;;;;;;;11.63;3.30;;;12.50;39.10;;;;;;5058064;28;20489;-70
2023/03/30 03:25:22;;;;;;;12.63;3.73;;;12.50;39.20;;;;;;5056339;28;20496;-70
2023/03/30 03:27:49;;;;;;;11.50;3.17;;;12.50;39.40;;;;;;5060864;28;20481;-70
2023/03/30 03:30:16;;;;;;;12.00;3.60;;;12.40;39.40;;;;;;5056219;28;20469;-70
2023/03/30 03:32:43;;;;;;;9.80;3.03;;;12.40;39.10;;;;;;5055914;28;20481;-70
2023/03/30 03:35:11;;;;;;;9.10;3.07;;;12.40;39.80;;;;;;5058280;28;20460;-70
2023/03/30 03:37:38;;;;;;;13.00;3.50;;;12.40;39.70;;;;;;5049774;28;20998;-70
2023/03/30 03:40:06;;;;;;;19.40;3.50;;;12.50;40.00;;;;;;5059970;28;20538;-70
2023/03/30 03:42:33;;;;;;;12.57;3.47;;;12.50;40.30;;;;;;5057334;28;20549;-70
2023/03/30 03:45:00;;;;;;;9.17;3.10;;;12.50;40.50;;;;;;5055929;28;20458;-70
2023/03/30 03:47:27;;;;;;;9.17;3.07;;;12.50;40.90;;;;;;5054009;28;20480;-68
2023/03/30 03:49:53;;;;;;;12.83;3.20;;;12.50;41.10;;;;;;5051728;28;20465;-68
2023/03/30 03:52:21;;;;;;;14.17;3.73;;;12.40;41.60;;;;;;5053863;28;20457;-69
2023/03/30 03:54:48;;;;;;;8.07;2.90;;;12.40;42.00;;;;;;5062275;28;20475;-69
2023/03/30 03:57:15;;;;;;;12.17;3.67;;;12.50;42.30;;;;;;5051411;28;20487;-68
2023/03/30 03:59:42;;;;;;;11.70;3.80;;;12.40;42.40;;;;;;5058057;28;20485;-68
2023/03/30 04:02:08;;;;;;;13.33;3.63;;;12.40;42.50;;;;;;5057649;28;20484;-68
2023/03/30 04:04:35;;;;;;;14.13;3.67;;;12.50;42.30;;;;;;5051854;28;20498;-68
2023/03/30 04:07:02;;;;;;;8.97;3.40;;;12.50;42.20;;;;;;5056888;28;21011;-68
2023/03/30 04:09:30;;;;;;;14.37;3.80;;;12.50;42.10;;;;;;5055905;28;20469;-68
2023/03/30 04:11:57;;;;;;;14.80;3.73;;;12.60;42.00;;;;;;5058473;28;20460;-68
2023/03/30 04:14:24;;;;;;;9.07;3.57;;;12.50;42.00;;;;;;5055590;28;21143;-69
2023/03/30 04:16:51;;;;;;;14.77;3.63;;;12.50;42.00;;;;;;5060423;28;20485;-69
2023/03/30 04:19:18;;;;;;;13.10;2.70;;;12.50;41.90;;;;;;5057265;28;20470;-69
2023/03/30 04:21:45;;;;;;;16.40;3.63;;;12.50;41.90;;;;;;5056320;28;20517;-69
2023/03/30 04:24:12;;;;;;;10.07;3.47;;;12.50;42.00;;;;;;5060860;28;20941;-68
2023/03/30 04:26:47;;;;;;;12.23;4.10;;;12.50;41.90;;;;;;5050134;28;20485;-70
2023/03/30 04:29:15;;;;;;;12.47;3.67;;;12.50;42.00;;;;;;5057774;28;20485;-69
2023/03/30 04:31:45;;;;;;;17.63;5.00;;;12.40;41.80;;;;;;5055515;28;21012;-69
2023/03/30 04:34:12;;;;;;;11.97;3.30;;;12.50;41.90;;;;;;5056115;28;20509;-69
2023/03/30 04:36:42;;;;;;;15.40;3.70;;;12.40;41.90;;;;;;5050009;28;20493;-70
2023/03/30 04:39:10;;;;;;;11.50;3.43;;;12.50;41.80;;;;;;5057426;28;21208;-70
2023/03/30 04:41:40;;;;;;;15.77;3.87;;;12.40;41.50;;;;;;5057069;28;20497;-69
2023/03/30 04:44:10;;;;;;;9.57;3.70;;;12.40;41.50;;;;;;5056008;28;20454;-69
2023/03/30 04:46:36;;;;;;;18.00;4.30;;;12.40;41.60;;;;;;5058431;28;20493;-70
2023/03/30 04:49:04;;;;;;;11.20;2.80;;;12.40;41.60;;;;;;5058330;28;20457;-72
2023/03/30 04:51:30;;;;;;;11.90;3.63;;;12.40;41.50;;;;;;5057190;28;20541;-72
2023/03/30 04:53:57;;;;;;;10.77;3.73;;;12.40;41.60;;;;;;5056026;28;20480;-70
2023/03/30 04:56:25;;;;;;;16.03;3.53;;;12.40;41.70;;;;;;5062996;28;20481;-70
2023/03/30 04:58:51;;;;;;;16.20;4.73;;;12.40;42.00;;;;;;5053868;28;20551;-70
2023/03/30 05:01:20;;;;;;;13.57;3.13;;;12.40;42.10;;;;;;5055667;28;20506;-70
2023/03/30 05:03:46;;;;;;;14.40;3.43;;;12.40;42.40;;;;;;5059327;28;21901;-70
2023/03/30 05:06:13;;;;;;;10.23;3.00;;;12.40;42.50;;;;;;5059111;28;20465;-70
2023/03/30 05:08:40;;;;;;;17.33;4.50;;;12.40;42.60;;;;;;5061536;28;20469;-70
2023/03/30 05:11:07;;;;;;;13.00;3.80;;;12.40;42.80;;;;;;5057369;28;20469;-69
2023/03/30 05:13:33;;;;;;;10.80;3.70;;;12.30;43.00;;;;;;5062283;28;20492;-70
2023/03/30 05:16:00;;;;;;;16.77;3.43;;;12.30;43.40;;;;;;5054035;28;20466;-70
2023/03/30 05:18:28;;;;;;;9.83;3.20;;;12.30;43.50;;;;;;5058045;28;20687;-70
2023/03/30 05:20:57;;;;;;;16.93;4.03;;;12.20;43.20;;;;;;5065759;28;20466;-69
2023/03/30 05:23:24;;;;;;;12.47;3.73;;;12.20;43.10;;;;;;5052839;28;20449;-66
2023/03/30 05:25:51;;;;;;;12.50;3.20;;;12.20;42.80;;;;;;5053938;28;20458;-66
2023/03/30 05:28:18;;;;;;;12.83;4.63;;;12.20;42.40;;;;;;5053823;28;20488;-66
2023/03/30 05:30:45;;;;;;;9.20;3.10;;;12.30;42.20;;;;;;5057711;28;20582;-67
2023/03/30 05:33:12;;;;;;;9.47;3.20;;;12.30;42.20;;;;;;5062255;28;20535;-65
2023/03/30 05:35:40;;;;;;;12.50;3.40;;;12.30;42.00;;;;;;5058656;28;20561;-69
2023/03/30 05:38:07;;;;;;;11.90;2.97;;;12.30;41.80;;;;;;5055820;28;20546;-67
2023/03/30 05:40:34;;;;;;;10.27;3.57;;;12.30;41.40;;;;;;5053219;28;20844;-68
2023/03/30 05:43:00;;;;;;;12.03;4.10;;;12.40;41.20;;;;;;5061509;28;20462;-68
2023/03/30 05:45:27;;;;;;;14.17;4.30;;;12.40;41.10;;;;;;5055344;28;20977;-69
2023/03/30 05:47:54;;;;;;;12.90;3.37;;;12.30;40.90;;;;;;5058208;28;21185;-69
2023/03/30 05:50:21;;;;;;;10.50;3.67;;;12.40;40.70;;;;;;5052817;22;20496;-67
2023/03/30 05:52:50;;;;;;;9.20;2.63;;;12.30;41.10;;;;;;5071063;28;20457;-66
2023/03/30 05:55:16;;;;;;;10.43;3.27;;;12.30;40.80;;;;;;5072163;28;20464;-66
2023/03/30 05:57:44;;;;;;;8.90;2.70;;;12.30;40.60;;;;;;5079704;28;20516;-65
2023/03/30 06:00:14;;;;;;;14.83;3.33;;;12.30;40.60;;;;;;5069804;28;20485;-66
2023/03/30 06:02:41;;;;;;;7.50;2.33;;;12.30;40.60;;;;;;5054964;28;20456;-66
2023/03/30 06:05:08;;;;;;;10.90;3.20;;;12.30;40.60;;;;;;5055743;28;20889;-65
2023/03/30 06:07:36;;;;;;;13.00;2.90;;;12.40;40.40;;;;;;5057299;28;20488;-66
2023/03/30 06:10:05;;;;;;;11.50;4.03;;;12.40;39.90;;;;;;5056231;28;20520;-65
2023/03/30 06:12:33;;;;;;;9.03;2.50;;;12.40;39.80;;;;;;5055954;28;21073;-65
2023/03/30 06:15:01;;;;;;;13.10;3.93;;;12.50;39.40;;;;;;5054150;28;20482;-65
2023/03/30 06:17:28;;;;;;;19.57;3.57;;;12.60;39.40;;;;;;5055871;28;20949;-66
2023/03/30 06:19:55;;;;;;;8.90;2.83;;;12.60;38.70;;;;;;5054589;28;20481;-68
2023/03/30 06:22:21;;;;;;;12.57;3.20;;;12.70;38.60;;;;;;5055216;28;20822;-72
2023/03/30 06:24:48;;;;;;;13.97;3.97;;;12.70;38.60;;;;;;5051849;28;20469;-71
2023/03/30 06:27:16;;;;;;;17.07;4.23;;;12.80;38.50;;;;;;5061087;28;20514;-67
2023/03/30 06:29:44;;;;;;;11.00;2.67;;;12.70;38.90;;;;;;5058900;28;20457;-67
2023/03/30 06:32:10;;;;;;;11.20;2.90;;;12.80;38.40;;;;;;5059516;28;20469;-67
2023/03/30 06:34:37;;;;;;;12.33;2.53;;;12.70;38.60;;;;;;5060245;28;20490;-66
2023/03/30 06:37:06;;;;;;;13.93;4.50;;;12.70;38.30;;;;;;5056404;28;20457;-66
2023/03/30 06:39:36;;;;;;;14.03;3.30;;;12.70;38.50;;;;;;5059276;28;20457;-69
2023/03/30 06:42:03;;;;;;;13.00;4.37;;;12.70;39.40;;;;;;5056221;28;20880;-66
2023/03/30 06:44:32;;;;;;;8.63;3.37;;;12.70;38.80;;;;;;5058784;28;20456;-68
2023/03/30 06:46:59;;;;;;;9.97;4.43;;;12.70;39.80;;;;;;5061302;28;20462;-68
2023/03/30 06:49:26;;;;;;;13.40;4.43;;;12.60;39.00;;;;;;5054415;28;20462;-66
2023/03/30 06:51:53;;;;;;;12.13;3.30;;;12.60;39.10;;;;;;5058853;28;20496;-65
2023/03/30 06:54:20;;;;;;;15.10;2.93;;;12.60;39.30;;;;;;5055132;28;20527;-66
2023/03/30 06:56:47;;;;;;;11.00;2.83;;;12.60;39.20;;;;;;5053802;28;20457;-66
2023/03/30 06:59:14;;;;;;;16.30;4.13;;;12.50;40.00;;;;;;5058325;28;20461;-66
2023/03/30 07:01:43;;;;;;;16.17;3.73;;;12.50;39.30;;;;;;5059658;28;20495;-67
2023/03/30 07:04:10;;;;;;;9.90;3.70;;;12.50;39.50;;;;;;5057671;28;20530;-67
2023/03/30 07:06:36;;;;;;;11.20;3.13;;;12.50;39.40;;;;;;5060374;28;20964;-66
2023/03/30 07:09:04;;;;;;;10.70;2.93;;;12.50;39.50;;;;;;5055259;28;20485;-66
2023/03/30 07:11:31;;;;;;;10.60;3.13;;;12.50;39.50;;;;;;5059102;28;20517;-66
2023/03/30 07:14:00;;;;;;;12.10;3.63;;;12.60;39.50;;;;;;5055218;28;20898;-66
2023/03/30 07:16:27;;;;;;;8.80;3.77;;;12.70;39.50;;;;;;5052099;28;20542;-66
2023/03/30 07:18:55;;;;;;;9.37;3.50;;;12.80;39.60;;;;;;5051024;28;20492;-67
2023/03/30 07:21:22;;;;;;;13.57;3.20;;;12.90;39.60;;;;;;5063076;28;20520;-66
2023/03/30 07:23:49;;;;;;;12.40;3.80;;;13.10;39.00;;;;;;5058076;28;20454;-67
2023/03/30 07:26:17;;;;;;;14.60;4.27;;;13.20;38.80;;;;;;5053930;28;20460;-66
2023/03/30 07:28:44;;;;;;;13.60;3.60;;;13.30;38.70;;;;;;5054109;28;21080;-66
2023/03/30 07:31:13;;;;;;;9.57;3.97;;;13.30;38.40;;;;;;5053645;28;20481;-64
2023/03/30 07:33:40;;;;;;;15.37;4.83;;;13.20;38.40;;;;;;5057975;28;20558;-66
2023/03/30 07:36:09;;;;;;;13.67;4.70;;;13.30;38.10;;;;;;5055772;28;20588;-70
2023/03/30 07:38:36;;;;;;;9.60;3.87;;;13.20;38.10;;;;;;5053142;28;20457;-69
2023/03/30 07:41:07;;;;;;;12.83;4.83;;;13.20;38.40;;;;;;5057685;28;20491;-67
2023/03/30 07:43:34;;;;;;;16.30;4.83;;;13.20;38.30;;;;;;5050767;28;20464;-69
2023/03/30 07:46:00;;;;;;;14.10;3.70;;;13.20;38.10;;;;;;5058628;28;20461;-69
2023/03/30 07:48:27;;;;;;;12.63;3.40;;;13.20;38.20;;;;;;5056653;28;20468;-68
2023/03/30 07:51:00;;;;;;;11.80;3.90;;;13.10;38.50;;;;;;5060708;28;20487;-69
2023/03/30 07:53:28;;;;;;;9.83;3.30;;;13.10;38.70;;;;;;5067164;28;20502;-69
2023/03/30 07:55:54;;;;;;;9.63;3.70;;;13.10;38.50;;;;;;5055497;28;20950;-68
2023/03/30 07:58:21;;;;;;;11.50;3.40;;;13.20;38.60;;;;;;5056079;28;20471;-68
2023/03/30 08:00:48;;;;;;;14.20;4.53;;;13.10;38.90;;;;;;5056293;28;20851;-68
2023/03/30 08:03:15;;;;;;;11.47;3.70;;;13.10;39.00;;;;;;5051648;28;20460;-69
2023/03/30 08:05:42;;;;;;;11.27;3.70;;;13.20;39.10;;;;;;5066015;28;20489;-69
2023/03/30 08:08:09;;;;;;;10.57;4.53;;;13.20;39.10;;;;;;5062712;28;20461;-69
2023/03/30 08:10:37;;;;;;;11.03;4.13;;;13.20;38.90;;;;;;5052253;28;20843;-69
2023/03/30 08:13:04;;;;;;;14.67;4.07;;;13.20;38.80;;;;;;5050185;28;21948;-71
2023/03/30 08:15:31;;;;;;;14.20;5.20;;;13.30;38.90;;;;;;5056962;28;21092;-70
2023/03/30 08:18:02;;;;;;;11.87;3.43;;;13.30;38.90;;;;;;5056522;28;20462;-70
2023/03/30 08:20:29;;;;;;;13.60;4.13;;;13.40;38.70;;;;;;5050162;28;21032;-69
2023/03/30 08:22:56;;;;;;;10.73;4.30;;;13.50;38.50;;;;;;5050993;28;20550;-69
2023/03/30 08:25:23;;;;;;;24.47;3.97;;;13.70;38.40;;;;;;5054729;28;20465;-66
2023/03/30 08:27:51;;;;;;;12.50;4.30;;;13.90;38.30;;;;;;5054132;28;20461;-68
2023/03/30 08:30:18;;;;;;;14.80;4.80;;;14.10;38.00;;;;;;5058911;28;21022;-68
2023/03/30 08:32:46;;;;;;;15.00;4.80;;;14.30;37.10;;;;;;5054975;28;20497;-68
2023/03/30 08:35:12;;;;;;;10.57;4.47;;;14.40;36.30;;;;;;5062007;28;20842;-69
2023/03/30 08:37:39;;;;;;;13.43;3.93;;;14.40;36.00;;;;;;5056185;28;20508;-68
2023/03/30 08:40:09;;;;;;;17.10;3.87;;;14.40;35.90;;;;;;5061046;28;20480;-67
2023/03/30 08:43:01;;;;;;;12.50;3.87;;;14.40;35.60;;;;;;5056146;28;20543;-64
2023/03/30 08:45:37;;;;;;;11.57;3.43;;;14.40;35.20;;;;;;5062000;28;20448;-64
2023/03/30 08:48:06;;;;;;;20.33;5.93;;;14.50;35.00;;;;;;5055106;28;20487;-64
2023/03/30 08:50:35;;;;;;;12.17;3.70;;;14.90;34.70;;;;;;5060547;28;20492;-63
2023/03/30 08:53:04;;;;;;;12.40;4.43;;;15.20;33.50;;;;;;5054371;28;20465;-65
2023/03/30 08:55:35;;;;;;;12.40;4.53;;;15.20;32.40;;;;;;5049876;28;20488;-66
2023/03/30 08:58:09;;;;;;;19.10;4.53;;;15.10;32.50;;;;;;5052402;28;20464;-68
2023/03/30 09:00:41;;;;;;;14.50;3.80;;;15.00;32.50;;;;;;5051817;28;20468;-62
2023/03/30 09:03:15;;;;;;;13.83;4.27;;;14.90;32.70;;;;;;5052622;28;20473;-66
2023/03/30 09:05:47;;;;;;;14.87;4.27;;;14.90;32.80;;;;;;5055163;28;20550;-65
2023/03/30 09:08:20;;;;;;;16.33;3.93;;;14.90;33.00;;;;;;5051598;28;20469;-63
2023/03/30 09:10:51;;;;;;;10.53;3.57;;;14.80;32.90;;;;;;5062183;28;20744;-64
2023/03/30 09:13:24;;;;;;;10.83;3.57;;;14.80;33.10;;;;;;5062102;28;20464;-63
2023/03/30 09:15:57;;;;;;;15.33;4.10;;;14.70;34.00;;;;;;5059228;28;20481;-66
2023/03/30 09:18:28;;;;;;;11.40;4.20;;;14.70;33.50;;;;;;5061813;28;21016;-67
2023/03/30 09:20:58;;;;;;;15.23;3.80;;;14.70;33.60;;;;;;5062073;28;20477;-67
2023/03/30 09:23:29;;;;;;;11.00;3.33;;;14.70;33.50;;;;;;5054973;28;20832;-67
2023/03/30 09:26:04;;;;;;;11.57;3.57;;;14.60;33.60;;;;;;5058763;28;20962;-68
2023/03/30 09:28:40;;;;;;;13.17;4.57;;;14.60;34.10;;;;;;5061498;28;20980;-68
2023/03/30 09:31:13;;;;;;;18.30;4.47;;;14.50;34.00;;;;;;5061413;28;20900;-67
2023/03/30 09:33:45;;;;;;;14.23;3.93;;;14.50;34.20;;;;;;5062738;28;20456;-67
2023/03/30 09:36:16;;;;;;;16.30;3.70;;;14.50;34.30;;;;;;5065019;28;20469;-67
2023/03/30 09:38:43;;;;;;;10.63;4.00;;;14.40;34.40;;;;;;5067012;28;20969;-63
2023/03/30 09:41:24;;;;;;;8.83;3.50;;;14.50;34.60;;;;;;5061159;28;20478;-64
2023/03/30 09:43:53;;;;;;;13.23;4.07;;;14.40;34.60;;;;;;5066713;28;20464;-63
2023/03/30 09:46:20;;;;;;;12.53;4.20;;;14.50;34.80;;;;;;5054852;28;20465;-66
2023/03/30 09:48:48;;;;;;;19.23;4.40;;;14.50;34.90;;;;;;5059077;28;20521;-67
2023/03/30 09:51:22;;;;;;;15.53;4.10;;;14.70;35.30;;;;;;5060032;28;20485;-66
2023/03/30 09:53:50;;;;;;;13.70;4.30;;;14.90;35.30;;;;;;5059079;28;20464;-69
2023/03/30 09:56:21;;;;;;;11.60;4.80;;;14.90;35.10;;;;;;5048427;28;20489;-67
2023/03/30 09:58:47;;;;;;;16.97;5.93;;;14.90;35.10;;;;;;5043457;28;20851;-66
2023/03/30 10:01:18;;;;;;;12.07;4.30;;;14.80;34.90;;;;;;5047496;28;20492;-66
2023/03/30 10:04:05;;;;;;;15.70;6.07;;;14.70;35.00;;;;;;5062524;28;20470;-67
2023/03/30 10:06:37;;;;;;;16.83;5.87;;;14.70;35.50;;;;;;5062257;28;21013;-67
2023/03/30 10:09:10;;;;;;;14.77;4.00;;;14.60;36.10;;;;;;5058353;28;20960;-66
2023/03/30 10:11:39;;;;;;;13.33;3.47;;;14.60;36.50;;;;;;5059137;28;20488;-64
2023/03/30 10:14:10;;;;;;;19.00;5.40;;;14.50;36.70;;;;;;5054336;28;20964;-67
2023/03/30 10:16:38;;;;;;;12.37;3.77;;;14.50;37.40;;;;;;5058188;28;20465;-67
2023/03/30 10:19:17;;;;;;;7.20;2.90;;;14.40;37.50;;;;;;5060788;28;20544;-65
2023/03/30 10:21:45;;;;;;;8.60;3.40;;;14.40;37.80;;;;;;5063656;28;20871;-65
2023/03/30 10:24:21;;;;;;;11.43;3.33;;;14.30;37.90;;;;;;5057178;28;20473;-65
2023/03/30 10:26:52;;;;;;;8.90;2.27;;;14.20;38.00;;;;;;5051662;28;20492;-65
2023/03/30 10:29:23;;;;;;;7.90;2.43;;;14.10;37.70;;;;;;5052200;28;20961;-65
2023/03/30 10:31:57;;;;;;;5.57;1.97;;;14.00;37.20;;;;;;5042608;28;20485;-64
2023/03/30 10:34:35;;;;;;;5.80;2.20;;;13.80;37.40;;;;;;5057050;28;20458;-64
2023/03/30 10:37:06;;;;;;;5.70;2.10;;;13.80;37.50;;;;;;5052999;28;20457;-65
2023/03/30 10:39:35;;;;;;;9.27;3.47;;;13.80;37.40;;;;;;5052595;28;20494;-65
2023/03/30 10:42:06;;;;;;;7.63;2.43;;;13.70;37.40;;;;;;5052616;28;20472;-67
2023/03/30 10:44:35;;;;;;;6.57;2.03;;;13.70;37.90;;;;;;5048306;28;20983;-68
2023/03/30 10:47:17;;;;;;;9.13;2.07;;;13.60;37.70;;;;;;5048250;28;20992;-62
2023/03/30 10:49:50;;;;;;;6.67;3.13;;;13.50;37.40;;;;;;5059835;28;20545;-66
2023/03/30 10:52:26;;;;;;;5.30;1.90;;;13.40;37.40;;;;;;5057795;28;20461;-62
2023/03/30 10:54:58;;;;;;;6.57;2.30;;;13.30;38.10;;;;;;5059250;28;20833;-62
2023/03/30 10:57:33;;;;;;;9.00;3.20;;;13.20;38.30;;;;;;5066369;28;20464;-65
2023/03/30 11:00:31;;;;;;;8.83;2.50;;;13.20;39.10;;;;;;5057958;28;20488;-61
2023/03/30 11:03:08;;;;;;;9.43;2.23;;;13.20;39.00;;;;;;5053823;28;21048;-61
2023/03/30 11:05:37;;;;;;;9.27;2.83;;;13.20;39.10;;;;;;5047605;28;20957;-62
2023/03/30 11:08:06;;;;;;;8.00;2.10;;;13.10;39.30;;;;;;5054276;28;20566;-61
2023/03/30 11:10:36;;;;;;;6.23;2.80;;;13.20;39.40;;;;;;5055360;28;21031;-62
2023/03/30 11:13:06;;;;;;;9.53;3.83;;;13.10;39.60;;;;;;5055451;28;20465;-61
2023/03/30 11:15:38;;;;;;;7.80;1.90;;;13.10;39.50;;;;;;5059183;28;20500;-61
2023/03/30 11:18:13;;;;;;;8.23;2.60;;;13.10;39.50;;;;;;5057014;28;20454;-61
2023/03/30 11:20:43;;;;;;;8.63;2.00;;;13.10;39.30;;;;;;5053144;28;20502;-62
2023/03/30 11:23:17;;;;;;;6.43;2.10;;;13.10;39.20;;;;;;5054571;28;20974;-62
2023/03/30 11:25:53;;;;;;;6.50;2.50;;;13.20;39.40;;;;;;5055602;28;20460;-62
2023/03/30 11:28:31;;;;;;;7.60;2.90;;;13.30;39.30;;;;;;5058249;28;20551;-61
2023/03/30 11:31:08;;;;;;;8.30;2.27;;;13.30;38.80;;;;;;5059131;28;20481;-61
2023/03/30 11:33:43;;;;;;;14.00;3.33;;;13.30;39.00;;;;;;5060959;28;20468;-61
2023/03/30 11:36:17;;;;;;;9.10;3.30;;;13.40;39.30;;;;;;5052980;28;20480;-61
2023/03/30 11:38:48;;;;;;;5.83;2.03;;;13.60;39.40;;;;;;5061919;28;20557;-61
2023/03/30 11:41:21;;;;;;;7.47;2.60;;;13.70;39.10;;;;;;5054865;28;20477;-61
2023/03/30 11:43:49;;;;;;;8.33;2.90;;;13.80;38.40;;;;;;5055427;28;20462;-62
2023/03/30 11:46:22;;;;;;;5.77;2.57;;;14.00;38.20;;;;;;5037870;28;20462;-61
2023/03/30 11:49:20;;;;;;;6.23;2.30;;;14.00;38.00;;;;;;5055562;28;20467;-61
2023/03/30 11:51:56;;;;;;;6.20;2.00;;;14.10;38.30;;;;;;5051386;28;20492;-61
2023/03/30 11:54:49;;;;;;;6.43;2.37;;;14.20;37.80;;;;;;5053754;28;20445;-61
2023/03/30 11:57:24;;;;;;;7.90;2.20;;;14.30;37.60;;;;;;5058239;28;20469;-61
2023/03/30 12:00:08;;;;;;;6.67;1.80;;;14.20;37.30;;;;;;5054799;28;20468;-61
2023/03/30 12:02:44;;;;;;;8.50;2.17;;;14.20;37.50;;;;;;5056098;28;20476;-62
2023/03/30 12:05:19;;;;;;;5.80;2.10;;;14.20;37.30;;;;;;5057968;28;20463;-62
2023/03/30 12:07:53;;;;;;;7.63;2.20;;;14.10;37.60;;;;;;5060229;28;20822;-61
2023/03/30 12:10:25;;;;;;;6.17;2.33;;;14.10;37.40;;;;;;5058397;28;20506;-61
2023/03/30 12:12:54;;;;;;;8.10;2.50;;;14.00;37.50;;;;;;5056652;28;21245;-61
2023/03/30 12:15:34;;;;;;;6.20;2.30;;;13.90;37.30;;;;;;5057402;28;20491;-65
2023/03/30 12:18:11;;;;;;;7.70;2.30;;;13.80;37.60;;;;;;5054273;28;20457;-65
2023/03/30 12:20:46;;;;;;;10.53;3.03;;;13.80;37.60;;;;;;5054539;28;20707;-66
2023/03/30 12:23:21;;;;;;;6.20;2.17;;;13.70;38.40;;;;;;5058329;28;20460;-64
2023/03/30 12:26:02;;;;;;;10.30;3.17;;;13.70;38.10;;;;;;5054814;28;20476;-66
2023/03/30 12:28:43;;;;;;;9.07;2.70;;;13.60;38.50;;;;;;5049369;28;20942;-66
2023/03/30 12:31:10;;;;;;;5.33;2.43;;;13.50;38.70;;;;;;5056139;28;20512;-64
2023/03/30 12:33:45;;;;;;;6.03;2.40;;;13.50;38.90;;;;;;5066060;28;20499;-65
2023/03/30 12:36:25;;;;;;;8.37;3.10;;;13.50;39.10;;;;;;5055239;28;20477;-64
2023/03/30 12:38:57;;;;;;;6.57;2.70;;;13.60;39.10;;;;;;5061475;28;20461;-64
2023/03/30 12:41:25;;;;;;;7.87;3.20;;;13.50;39.30;;;;;;5064985;28;20546;-64
2023/03/30 12:44:24;;;;;;;11.67;2.80;;;13.60;39.00;;;;;;5063441;28;20527;-63
2023/03/30 12:47:00;;;;;;;11.10;3.20;;;13.60;39.10;;;;;;5062084;28;20540;-64
2023/03/30 12:49:39;;;;;;;8.10;2.80;;;13.60;38.80;;;;;;5059396;28;21070;-64
2023/03/30 12:52:13;;;;;;;10.13;2.50;;;13.60;39.00;;;;;;5063557;28;20456;-64
2023/03/30 12:55:13;;;;;;;8.60;3.17;;;13.50;39.30;;;;;;5057958;28;20957;-64
2023/03/30 12:57:57;;;;;;;7.87;2.90;;;13.50;39.50;;;;;;5061639;28;20461;-64
2023/03/30 13:00:48;;;;;;;11.00;3.50;;;13.40;40.10;;;;;;5059941;28;20485;-65